sensor_id;sensor_type;location;lat;lon;timestamp;temperature;humidity
53695;DHT22;39588;51.124;7.190;2022-07-06T00:01:33;15.00;92.40
53695;DHT22;39588;51.124;7.190;2022-07-06T00:03:58;15.00;92.50
53695;DHT22;39588;51.124;7.190;2022-07-06T00:06:28;14.90;93.00
53695;DHT22;39588;51.124;7.190;2022-07-06T00:08:54;14.90;93.20
53695;DHT22;39588;51.124;7.190;2022-07-06T00:11:19;14.80;93.30
53695;DHT22;39588;51.124;7.190;2022-07-06T00:13:45;14.80;93.30
53695;DHT22;39588;51.124;7.190;2022-07-06T00:16:11;14.70;93.60
53695;DHT22;39588;51.124;7.190;2022-07-06T00:18:36;14.70;93.60
53695;DHT22;39588;51.124;7.190;2022-07-06T00:21:02;14.70;93.70
53695;DHT22;39588;51.124;7.190;2022-07-06T00:23:28;14.60;93.80
53695;DHT22;39588;51.124;7.190;2022-07-06T00:25:53;14.50;93.90
53695;DHT22;39588;51.124;7.190;2022-07-06T00:28:19;14.40;93.90
53695;DHT22;39588;51.124;7.190;2022-07-06T00:30:45;14.30;94.10
53695;DHT22;39588;51.124;7.190;2022-07-06T00:33:10;14.30;94.20
53695;DHT22;39588;51.124;7.190;2022-07-06T00:35:36;14.20;94.20
53695;DHT22;39588;51.124;7.190;2022-07-06T00:38:03;14.20;94.40
53695;DHT22;39588;51.124;7.190;2022-07-06T00:40:29;14.10;94.30
53695;DHT22;39588;51.124;7.190;2022-07-06T00:42:55;14.10;94.30
53695;DHT22;39588;51.124;7.190;2022-07-06T00:45:21;14.10;94.60
53695;DHT22;39588;51.124;7.190;2022-07-06T00:47:47;14.10;94.40
53695;DHT22;39588;51.124;7.190;2022-07-06T00:50:15;14.20;94.40
53695;DHT22;39588;51.124;7.190;2022-07-06T00:52:44;14.10;94.20
53695;DHT22;39588;51.124;7.190;2022-07-06T00:55:10;14.20;94.30
53695;DHT22;39588;51.124;7.190;2022-07-06T00:57:37;14.10;94.10
53695;DHT22;39588;51.124;7.190;2022-07-06T01:00:08;14.20;94.40
53695;DHT22;39588;51.124;7.190;2022-07-06T01:02:35;14.20;94.10
53695;DHT22;39588;51.124;7.190;2022-07-06T01:05:03;14.30;94.00
53695;DHT22;39588;51.124;7.190;2022-07-06T01:07:29;14.30;94.00
53695;DHT22;39588;51.124;7.190;2022-07-06T01:09:55;14.30;93.90
53695;DHT22;39588;51.124;7.190;2022-07-06T01:12:21;14.40;94.20
53695;DHT22;39588;51.124;7.190;2022-07-06T01:14:47;14.40;94.10
53695;DHT22;39588;51.124;7.190;2022-07-06T01:17:14;14.40;93.80
53695;DHT22;39588;51.124;7.190;2022-07-06T01:19:40;14.30;93.80
53695;DHT22;39588;51.124;7.190;2022-07-06T01:22:06;14.20;94.00
53695;DHT22;39588;51.124;7.190;2022-07-06T01:24:34;14.20;94.20
53695;DHT22;39588;51.124;7.190;2022-07-06T01:27:00;14.10;94.10
53695;DHT22;39588;51.124;7.190;2022-07-06T01:29:26;14.00;94.30
53695;DHT22;39588;51.124;7.190;2022-07-06T01:31:52;13.90;94.50
53695;DHT22;39588;51.124;7.190;2022-07-06T01:34:18;13.80;94.60
53695;DHT22;39588;51.124;7.190;2022-07-06T01:36:44;13.70;95.00
53695;DHT22;39588;51.124;7.190;2022-07-06T01:39:10;13.70;94.80
53695;DHT22;39588;51.124;7.190;2022-07-06T01:41:36;13.60;94.80
53695;DHT22;39588;51.124;7.190;2022-07-06T01:44:02;13.50;95.00
53695;DHT22;39588;51.124;7.190;2022-07-06T01:46:28;13.50;94.80
53695;DHT22;39588;51.124;7.190;2022-07-06T01:48:54;13.40;95.00
53695;DHT22;39588;51.124;7.190;2022-07-06T01:51:19;13.40;94.90
53695;DHT22;39588;51.124;7.190;2022-07-06T01:53:46;13.40;94.90
53695;DHT22;39588;51.124;7.190;2022-07-06T01:56:12;13.30;95.20
53695;DHT22;39588;51.124;7.190;2022-07-06T01:58:38;13.30;95.30
53695;DHT22;39588;51.124;7.190;2022-07-06T02:01:17;13.30;95.40
53695;DHT22;39588;51.124;7.190;2022-07-06T02:03:44;13.20;95.30
53695;DHT22;39588;51.124;7.190;2022-07-06T02:06:10;13.40;95.40
53695;DHT22;39588;51.124;7.190;2022-07-06T02:08:37;13.10;95.60
53695;DHT22;39588;51.124;7.190;2022-07-06T02:11:04;13.10;95.70
53695;DHT22;39588;51.124;7.190;2022-07-06T02:13:30;13.00;95.50
53695;DHT22;39588;51.124;7.190;2022-07-06T02:15:56;13.00;95.70
53695;DHT22;39588;51.124;7.190;2022-07-06T02:18:21;13.00;95.70
53695;DHT22;39588;51.124;7.190;2022-07-06T02:20:47;12.90;95.60
53695;DHT22;39588;51.124;7.190;2022-07-06T02:23:13;12.90;95.70
53695;DHT22;39588;51.124;7.190;2022-07-06T02:25:38;12.90;95.80
53695;DHT22;39588;51.124;7.190;2022-07-06T02:28:04;12.90;96.00
53695;DHT22;39588;51.124;7.190;2022-07-06T02:30:30;12.80;96.00
53695;DHT22;39588;51.124;7.190;2022-07-06T02:32:55;12.80;96.00
53695;DHT22;39588;51.124;7.190;2022-07-06T02:35:21;12.80;95.90
53695;DHT22;39588;51.124;7.190;2022-07-06T02:37:47;12.70;95.80
53695;DHT22;39588;51.124;7.190;2022-07-06T02:40:12;12.70;96.00
53695;DHT22;39588;51.124;7.190;2022-07-06T02:42:38;12.70;96.00
53695;DHT22;39588;51.124;7.190;2022-07-06T02:45:04;12.60;96.00
53695;DHT22;39588;51.124;7.190;2022-07-06T02:47:30;12.60;96.20
53695;DHT22;39588;51.124;7.190;2022-07-06T02:49:56;12.60;96.30
53695;DHT22;39588;51.124;7.190;2022-07-06T02:52:21;12.80;96.30
53695;DHT22;39588;51.124;7.190;2022-07-06T02:54:47;12.60;96.10
53695;DHT22;39588;51.124;7.190;2022-07-06T02:57:14;12.50;96.20
53695;DHT22;39588;51.124;7.190;2022-07-06T02:59:40;12.50;96.40
53695;DHT22;39588;51.124;7.190;2022-07-06T03:02:06;12.50;96.30
53695;DHT22;39588;51.124;7.190;2022-07-06T03:04:32;12.50;96.20
53695;DHT22;39588;51.124;7.190;2022-07-06T03:06:58;12.50;96.10
53695;DHT22;39588;51.124;7.190;2022-07-06T03:09:23;12.40;96.30
53695;DHT22;39588;51.124;7.190;2022-07-06T03:11:49;12.40;96.30
53695;DHT22;39588;51.124;7.190;2022-07-06T03:14:14;12.40;96.40
53695;DHT22;39588;51.124;7.190;2022-07-06T03:16:40;12.40;96.40
53695;DHT22;39588;51.124;7.190;2022-07-06T03:19:06;12.40;96.40
53695;DHT22;39588;51.124;7.190;2022-07-06T03:21:31;12.40;96.30
53695;DHT22;39588;51.124;7.190;2022-07-06T03:23:57;12.50;96.40
53695;DHT22;39588;51.124;7.190;2022-07-06T03:26:23;12.50;96.50
53695;DHT22;39588;51.124;7.190;2022-07-06T03:28:48;12.70;96.50
53695;DHT22;39588;51.124;7.190;2022-07-06T03:31:14;12.80;96.50
53695;DHT22;39588;51.124;7.190;2022-07-06T03:33:39;12.90;96.30
53695;DHT22;39588;51.124;7.190;2022-07-06T03:36:05;12.90;96.20
53695;DHT22;39588;51.124;7.190;2022-07-06T03:38:31;13.00;96.20
53695;DHT22;39588;51.124;7.190;2022-07-06T03:40:57;13.00;96.10
53695;DHT22;39588;51.124;7.190;2022-07-06T03:43:22;12.80;96.10
53695;DHT22;39588;51.124;7.190;2022-07-06T03:45:48;12.70;96.40
53695;DHT22;39588;51.124;7.190;2022-07-06T03:48:13;12.70;96.50
53695;DHT22;39588;51.124;7.190;2022-07-06T03:50:39;12.60;96.30
53695;DHT22;39588;51.124;7.190;2022-07-06T03:53:05;12.50;96.40
53695;DHT22;39588;51.124;7.190;2022-07-06T03:55:30;12.50;96.50
53695;DHT22;39588;51.124;7.190;2022-07-06T03:57:56;12.50;96.60
53695;DHT22;39588;51.124;7.190;2022-07-06T04:00:22;12.50;96.50
53695;DHT22;39588;51.124;7.190;2022-07-06T04:02:47;12.50;96.60
53695;DHT22;39588;51.124;7.190;2022-07-06T04:05:13;12.50;96.70
53695;DHT22;39588;51.124;7.190;2022-07-06T04:07:39;12.60;96.70
53695;DHT22;39588;51.124;7.190;2022-07-06T04:10:06;12.60;96.70
53695;DHT22;39588;51.124;7.190;2022-07-06T04:12:32;12.60;96.70
53695;DHT22;39588;51.124;7.190;2022-07-06T04:14:57;12.60;96.60
53695;DHT22;39588;51.124;7.190;2022-07-06T04:17:23;12.50;96.60
53695;DHT22;39588;51.124;7.190;2022-07-06T04:20:09;12.50;96.60
53695;DHT22;39588;51.124;7.190;2022-07-06T04:22:40;12.50;96.80
53695;DHT22;39588;51.124;7.190;2022-07-06T04:25:06;12.60;96.80
53695;DHT22;39588;51.124;7.190;2022-07-06T04:27:32;12.50;96.70
53695;DHT22;39588;51.124;7.190;2022-07-06T04:29:58;12.50;96.70
53695;DHT22;39588;51.124;7.190;2022-07-06T04:32:23;12.50;96.70
53695;DHT22;39588;51.124;7.190;2022-07-06T04:34:49;12.50;96.90
53695;DHT22;39588;51.124;7.190;2022-07-06T04:37:14;12.40;96.90
53695;DHT22;39588;51.124;7.190;2022-07-06T04:39:40;12.50;96.90
53695;DHT22;39588;51.124;7.190;2022-07-06T04:42:06;12.60;97.00
53695;DHT22;39588;51.124;7.190;2022-07-06T04:44:31;12.60;97.00
53695;DHT22;39588;51.124;7.190;2022-07-06T04:46:57;12.60;96.90
53695;DHT22;39588;51.124;7.190;2022-07-06T04:49:22;12.70;97.00
53695;DHT22;39588;51.124;7.190;2022-07-06T04:51:48;12.80;96.80
53695;DHT22;39588;51.124;7.190;2022-07-06T04:54:14;12.80;96.80
53695;DHT22;39588;51.124;7.190;2022-07-06T04:56:39;12.90;96.90
53695;DHT22;39588;51.124;7.190;2022-07-06T04:59:05;12.90;96.70
53695;DHT22;39588;51.124;7.190;2022-07-06T05:01:31;13.00;96.70
53695;DHT22;39588;51.124;7.190;2022-07-06T05:03:56;13.20;96.70
53695;DHT22;39588;51.124;7.190;2022-07-06T05:06:22;13.40;96.50
53695;DHT22;39588;51.124;7.190;2022-07-06T05:08:48;13.70;96.40
53695;DHT22;39588;51.124;7.190;2022-07-06T05:11:13;13.90;96.00
53695;DHT22;39588;51.124;7.190;2022-07-06T05:13:39;14.00;95.90
53695;DHT22;39588;51.124;7.190;2022-07-06T05:16:05;13.90;95.70
53695;DHT22;39588;51.124;7.190;2022-07-06T05:18:30;14.00;95.90
53695;DHT22;39588;51.124;7.190;2022-07-06T05:20:56;14.10;95.70
53695;DHT22;39588;51.124;7.190;2022-07-06T05:23:22;14.20;95.80
53695;DHT22;39588;51.124;7.190;2022-07-06T05:25:47;14.20;95.50
53695;DHT22;39588;51.124;7.190;2022-07-06T05:28:13;14.20;95.60
53695;DHT22;39588;51.124;7.190;2022-07-06T05:30:38;14.40;95.70
53695;DHT22;39588;51.124;7.190;2022-07-06T05:33:04;14.60;95.60
53695;DHT22;39588;51.124;7.190;2022-07-06T05:35:30;14.80;95.30
53695;DHT22;39588;51.124;7.190;2022-07-06T05:37:56;14.70;95.30
53695;DHT22;39588;51.124;7.190;2022-07-06T05:40:21;14.80;95.30
53695;DHT22;39588;51.124;7.190;2022-07-06T05:42:47;14.70;95.10
53695;DHT22;39588;51.124;7.190;2022-07-06T05:45:13;14.70;95.40
53695;DHT22;39588;51.124;7.190;2022-07-06T05:47:39;14.70;95.20
53695;DHT22;39588;51.124;7.190;2022-07-06T05:50:23;14.70;95.30
53695;DHT22;39588;51.124;7.190;2022-07-06T05:52:57;14.80;95.30
53695;DHT22;39588;51.124;7.190;2022-07-06T05:55:23;14.80;95.30
53695;DHT22;39588;51.124;7.190;2022-07-06T05:57:48;14.90;95.20
53695;DHT22;39588;51.124;7.190;2022-07-06T06:00:16;15.00;95.10
53695;DHT22;39588;51.124;7.190;2022-07-06T06:02:42;15.10;95.10
53695;DHT22;39588;51.124;7.190;2022-07-06T06:05:09;15.20;95.20
53695;DHT22;39588;51.124;7.190;2022-07-06T06:07:36;15.10;95.00
53695;DHT22;39588;51.124;7.190;2022-07-06T06:10:11;15.00;95.00
53695;DHT22;39588;51.124;7.190;2022-07-06T06:12:38;15.00;95.20
53695;DHT22;39588;51.124;7.190;2022-07-06T06:15:04;15.10;95.00
53695;DHT22;39588;51.124;7.190;2022-07-06T06:17:31;15.20;95.00
53695;DHT22;39588;51.124;7.190;2022-07-06T06:19:57;15.40;94.90
53695;DHT22;39588;51.124;7.190;2022-07-06T06:22:23;15.40;94.90
53695;DHT22;39588;51.124;7.190;2022-07-06T06:24:49;15.60;94.80
53695;DHT22;39588;51.124;7.190;2022-07-06T06:27:15;15.70;94.70
53695;DHT22;39588;51.124;7.190;2022-07-06T06:29:41;15.80;94.50
53695;DHT22;39588;51.124;7.190;2022-07-06T06:32:07;15.90;94.50
53695;DHT22;39588;51.124;7.190;2022-07-06T06:34:33;15.90;94.10
53695;DHT22;39588;51.124;7.190;2022-07-06T06:36:59;15.80;94.00
53695;DHT22;39588;51.124;7.190;2022-07-06T06:39:26;15.90;94.50
53695;DHT22;39588;51.124;7.190;2022-07-06T06:41:52;16.10;94.60
53695;DHT22;39588;51.124;7.190;2022-07-06T06:44:17;16.30;94.40
53695;DHT22;39588;51.124;7.190;2022-07-06T06:46:43;16.50;94.10
53695;DHT22;39588;51.124;7.190;2022-07-06T06:49:11;16.60;93.80
53695;DHT22;39588;51.124;7.190;2022-07-06T06:51:37;16.70;93.80
53695;DHT22;39588;51.124;7.190;2022-07-06T06:54:04;16.70;93.30
53695;DHT22;39588;51.124;7.190;2022-07-06T06:56:29;17.00;93.60
53695;DHT22;39588;51.124;7.190;2022-07-06T06:58:55;17.60;93.10
53695;DHT22;39588;51.124;7.190;2022-07-06T07:01:21;17.60;93.00
53695;DHT22;39588;51.124;7.190;2022-07-06T07:03:46;17.30;92.70
53695;DHT22;39588;51.124;7.190;2022-07-06T07:06:12;16.80;92.70
53695;DHT22;39588;51.124;7.190;2022-07-06T07:08:38;16.30;93.00
53695;DHT22;39588;51.124;7.190;2022-07-06T07:11:04;16.10;93.30
53695;DHT22;39588;51.124;7.190;2022-07-06T07:13:30;16.30;93.40
53695;DHT22;39588;51.124;7.190;2022-07-06T07:15:56;16.50;93.50
53695;DHT22;39588;51.124;7.190;2022-07-06T07:18:21;16.90;93.50
53695;DHT22;39588;51.124;7.190;2022-07-06T07:20:47;17.10;93.10
53695;DHT22;39588;51.124;7.190;2022-07-06T07:23:13;17.10;92.90
53695;DHT22;39588;51.124;7.190;2022-07-06T07:25:38;17.20;92.80
53695;DHT22;39588;51.124;7.190;2022-07-06T07:28:05;17.20;92.70
53695;DHT22;39588;51.124;7.190;2022-07-06T07:30:30;17.20;92.60
53695;DHT22;39588;51.124;7.190;2022-07-06T07:32:56;17.00;92.70
53695;DHT22;39588;51.124;7.190;2022-07-06T07:35:22;16.70;92.80
53695;DHT22;39588;51.124;7.190;2022-07-06T07:37:48;16.50;92.80
53695;DHT22;39588;51.124;7.190;2022-07-06T07:40:14;16.10;92.80
53695;DHT22;39588;51.124;7.190;2022-07-06T07:42:40;15.90;93.20
53695;DHT22;39588;51.124;7.190;2022-07-06T07:45:07;15.90;93.60
53695;DHT22;39588;51.124;7.190;2022-07-06T07:47:33;16.00;93.40
53695;DHT22;39588;51.124;7.190;2022-07-06T07:49:59;16.20;93.50
53695;DHT22;39588;51.124;7.190;2022-07-06T07:52:25;16.40;93.40
53695;DHT22;39588;51.124;7.190;2022-07-06T07:54:51;16.60;93.00
53695;DHT22;39588;51.124;7.190;2022-07-06T07:57:16;16.70;92.40
53695;DHT22;39588;51.124;7.190;2022-07-06T07:59:42;16.80;92.00
53695;DHT22;39588;51.124;7.190;2022-07-06T08:02:08;17.00;92.10
53695;DHT22;39588;51.124;7.190;2022-07-06T08:04:33;17.50;92.40
53695;DHT22;39588;51.124;7.190;2022-07-06T08:06:59;18.00;91.70
53695;DHT22;39588;51.124;7.190;2022-07-06T08:09:25;18.00;91.40
53695;DHT22;39588;51.124;7.190;2022-07-06T08:11:50;17.80;90.10
53695;DHT22;39588;51.124;7.190;2022-07-06T08:14:16;17.50;90.30
53695;DHT22;39588;51.124;7.190;2022-07-06T08:16:42;17.30;90.20
53695;DHT22;39588;51.124;7.190;2022-07-06T08:19:08;17.10;90.80
53695;DHT22;39588;51.124;7.190;2022-07-06T08:21:35;17.10;91.20
53695;DHT22;39588;51.124;7.190;2022-07-06T08:24:01;17.20;91.20
53695;DHT22;39588;51.124;7.190;2022-07-06T08:26:27;17.30;90.90
53695;DHT22;39588;51.124;7.190;2022-07-06T08:28:53;17.40;90.40
53695;DHT22;39588;51.124;7.190;2022-07-06T08:31:19;17.50;90.70
53695;DHT22;39588;51.124;7.190;2022-07-06T08:33:44;17.60;90.00
53695;DHT22;39588;51.124;7.190;2022-07-06T08:36:10;17.70;90.60
53695;DHT22;39588;51.124;7.190;2022-07-06T08:38:36;17.90;90.30
53695;DHT22;39588;51.124;7.190;2022-07-06T08:41:03;18.10;90.50
53695;DHT22;39588;51.124;7.190;2022-07-06T08:43:32;18.30;89.00
53695;DHT22;39588;51.124;7.190;2022-07-06T08:45:58;18.40;88.60
53695;DHT22;39588;51.124;7.190;2022-07-06T08:48:24;18.40;89.40
53695;DHT22;39588;51.124;7.190;2022-07-06T08:50:54;18.60;89.40
53695;DHT22;39588;51.124;7.190;2022-07-06T08:53:20;19.10;87.90
53695;DHT22;39588;51.124;7.190;2022-07-06T08:55:48;19.00;84.70
53695;DHT22;39588;51.124;7.190;2022-07-06T08:58:14;19.00;82.60
53695;DHT22;39588;51.124;7.190;2022-07-06T09:00:41;19.30;84.30
53695;DHT22;39588;51.124;7.190;2022-07-06T09:03:07;19.80;82.80
53695;DHT22;39588;51.124;7.190;2022-07-06T09:05:37;20.30;83.90
53695;DHT22;39588;51.124;7.190;2022-07-06T09:08:05;20.90;84.90
53695;DHT22;39588;51.124;7.190;2022-07-06T09:10:30;20.70;77.80
53695;DHT22;39588;51.124;7.190;2022-07-06T09:13:04;20.60;78.80
53695;DHT22;39588;51.124;7.190;2022-07-06T09:15:30;20.20;78.70
53695;DHT22;39588;51.124;7.190;2022-07-06T09:17:56;19.90;77.60
53695;DHT22;39588;51.124;7.190;2022-07-06T09:20:23;20.10;76.90
53695;DHT22;39588;51.124;7.190;2022-07-06T09:22:49;20.40;76.80
53695;DHT22;39588;51.124;7.190;2022-07-06T09:25:15;20.90;73.60
53695;DHT22;39588;51.124;7.190;2022-07-06T09:27:44;21.00;73.30
53695;DHT22;39588;51.124;7.190;2022-07-06T09:30:13;21.10;72.10
53695;DHT22;39588;51.124;7.190;2022-07-06T09:32:47;20.90;70.70
53695;DHT22;39588;51.124;7.190;2022-07-06T09:38:11;20.60;70.30
53695;DHT22;39588;51.124;7.190;2022-07-06T09:40:39;20.50;70.80
53695;DHT22;39588;51.124;7.190;2022-07-06T09:45:38;20.40;68.60
53695;DHT22;39588;51.124;7.190;2022-07-06T09:48:13;20.40;63.20
53695;DHT22;39588;51.124;7.190;2022-07-06T09:53:12;20.30;66.20
53695;DHT22;39588;51.124;7.190;2022-07-06T09:55:38;20.60;62.50
53695;DHT22;39588;51.124;7.190;2022-07-06T09:58:04;20.70;58.90
53695;DHT22;39588;51.124;7.190;2022-07-06T10:05:23;20.40;59.00
53695;DHT22;39588;51.124;7.190;2022-07-06T10:07:57;20.30;61.70
53695;DHT22;39588;51.124;7.190;2022-07-06T10:10:28;20.80;63.90
53695;DHT22;39588;51.124;7.190;2022-07-06T10:12:58;21.40;61.50
53695;DHT22;39588;51.124;7.190;2022-07-06T10:15:28;21.70;58.90
53695;DHT22;39588;51.124;7.190;2022-07-06T10:17:58;21.60;59.50
53695;DHT22;39588;51.124;7.190;2022-07-06T10:20:28;21.20;60.10
53695;DHT22;39588;51.124;7.190;2022-07-06T10:22:54;21.00;60.70
53695;DHT22;39588;51.124;7.190;2022-07-06T10:25:23;21.00;60.10
53695;DHT22;39588;51.124;7.190;2022-07-06T10:27:51;21.10;62.20
53695;DHT22;39588;51.124;7.190;2022-07-06T10:30:18;21.30;62.20
53695;DHT22;39588;51.124;7.190;2022-07-06T10:32:45;21.30;59.60
53695;DHT22;39588;51.124;7.190;2022-07-06T10:35:13;21.10;56.70
53695;DHT22;39588;51.124;7.190;2022-07-06T10:37:39;21.20;60.90
53695;DHT22;39588;51.124;7.190;2022-07-06T10:40:05;21.70;63.20
53695;DHT22;39588;51.124;7.190;2022-07-06T10:50:40;21.90;55.70
53695;DHT22;39588;51.124;7.190;2022-07-06T10:55:47;20.80;56.40
53695;DHT22;39588;51.124;7.190;2022-07-06T10:58:14;20.60;60.20
53695;DHT22;39588;51.124;7.190;2022-07-06T11:03:42;21.00;59.30
53695;DHT22;39588;51.124;7.190;2022-07-06T11:06:13;21.10;56.90
53695;DHT22;39588;51.124;7.190;2022-07-06T11:11:15;21.40;58.40
53695;DHT22;39588;51.124;7.190;2022-07-06T11:13:51;21.60;58.60
53695;DHT22;39588;51.124;7.190;2022-07-06T11:16:19;21.60;60.80
53695;DHT22;39588;51.124;7.190;2022-07-06T11:18:50;21.70;61.90
53695;DHT22;39588;51.124;7.190;2022-07-06T11:21:36;22.00;61.60
53695;DHT22;39588;51.124;7.190;2022-07-06T11:24:04;22.40;62.60
53695;DHT22;39588;51.124;7.190;2022-07-06T11:26:30;22.60;61.40
53695;DHT22;39588;51.124;7.190;2022-07-06T11:28:58;22.90;61.30
53695;DHT22;39588;51.124;7.190;2022-07-06T11:31:26;22.90;61.70
53695;DHT22;39588;51.124;7.190;2022-07-06T11:33:51;23.10;62.60
53695;DHT22;39588;51.124;7.190;2022-07-06T11:36:19;22.90;59.00
53695;DHT22;39588;51.124;7.190;2022-07-06T11:38:46;22.70;59.20
53695;DHT22;39588;51.124;7.190;2022-07-06T11:41:13;22.70;59.00
53695;DHT22;39588;51.124;7.190;2022-07-06T11:43:44;22.90;56.20
53695;DHT22;39588;51.124;7.190;2022-07-06T11:46:29;22.70;58.10
53695;DHT22;39588;51.124;7.190;2022-07-06T11:49:00;22.50;58.10
53695;DHT22;39588;51.124;7.190;2022-07-06T11:51:31;22.20;57.90
53695;DHT22;39588;51.124;7.190;2022-07-06T11:53:59;21.90;59.10
53695;DHT22;39588;51.124;7.190;2022-07-06T11:56:26;22.10;58.40
53695;DHT22;39588;51.124;7.190;2022-07-06T11:58:57;22.10;56.90
53695;DHT22;39588;51.124;7.190;2022-07-06T12:01:24;21.90;57.30
53695;DHT22;39588;51.124;7.190;2022-07-06T12:03:52;21.70;55.60
53695;DHT22;39588;51.124;7.190;2022-07-06T12:06:22;21.40;57.40
53695;DHT22;39588;51.124;7.190;2022-07-06T12:08:53;21.30;57.30
53695;DHT22;39588;51.124;7.190;2022-07-06T12:11:30;21.30;56.10
53695;DHT22;39588;51.124;7.190;2022-07-06T12:13:58;21.30;58.00
53695;DHT22;39588;51.124;7.190;2022-07-06T12:16:36;21.80;60.10
53695;DHT22;39588;51.124;7.190;2022-07-06T12:19:03;22.20;60.30
53695;DHT22;39588;51.124;7.190;2022-07-06T12:21:30;22.30;60.80
53695;DHT22;39588;51.124;7.190;2022-07-06T12:23:56;22.30;59.80
53695;DHT22;39588;51.124;7.190;2022-07-06T12:26:24;22.00;59.20
53695;DHT22;39588;51.124;7.190;2022-07-06T12:29:23;21.90;59.60
53695;DHT22;39588;51.124;7.190;2022-07-06T12:31:52;21.50;57.40
53695;DHT22;39588;51.124;7.190;2022-07-06T12:36:56;21.00;60.20
53695;DHT22;39588;51.124;7.190;2022-07-06T12:39:28;21.00;60.60
53695;DHT22;39588;51.124;7.190;2022-07-06T12:42:02;21.30;59.50
53695;DHT22;39588;51.124;7.190;2022-07-06T12:44:29;21.60;60.70
53695;DHT22;39588;51.124;7.190;2022-07-06T12:47:08;21.80;56.80
53695;DHT22;39588;51.124;7.190;2022-07-06T12:49:35;21.80;59.30
53695;DHT22;39588;51.124;7.190;2022-07-06T12:52:14;22.00;57.50
53695;DHT22;39588;51.124;7.190;2022-07-06T12:54:43;22.00;56.00
53695;DHT22;39588;51.124;7.190;2022-07-06T12:59:44;22.00;57.30
53695;DHT22;39588;51.124;7.190;2022-07-06T13:04:55;22.20;53.40
53695;DHT22;39588;51.124;7.190;2022-07-06T13:07:21;22.10;54.30
53695;DHT22;39588;51.124;7.190;2022-07-06T13:09:46;22.30;57.60
53695;DHT22;39588;51.124;7.190;2022-07-06T13:12:12;22.20;53.00
53695;DHT22;39588;51.124;7.190;2022-07-06T13:14:38;22.10;54.10
53695;DHT22;39588;51.124;7.190;2022-07-06T13:17:03;22.20;54.80
53695;DHT22;39588;51.124;7.190;2022-07-06T13:19:29;22.50;57.60
53695;DHT22;39588;51.124;7.190;2022-07-06T13:21:56;22.50;57.20
53695;DHT22;39588;51.124;7.190;2022-07-06T13:24:22;22.50;55.10
53695;DHT22;39588;51.124;7.190;2022-07-06T13:26:47;22.10;54.00
53695;DHT22;39588;51.124;7.190;2022-07-06T13:29:13;22.00;55.60
53695;DHT22;39588;51.124;7.190;2022-07-06T13:31:39;22.20;57.30
53695;DHT22;39588;51.124;7.190;2022-07-06T13:34:07;22.40;56.50
53695;DHT22;39588;51.124;7.190;2022-07-06T13:36:34;22.30;54.90
53695;DHT22;39588;51.124;7.190;2022-07-06T13:39:00;22.30;55.30
53695;DHT22;39588;51.124;7.190;2022-07-06T13:41:25;22.20;55.70
53695;DHT22;39588;51.124;7.190;2022-07-06T13:43:51;22.00;54.60
53695;DHT22;39588;51.124;7.190;2022-07-06T13:46:17;21.30;54.20
53695;DHT22;39588;51.124;7.190;2022-07-06T13:48:43;21.50;57.60
53695;DHT22;39588;51.124;7.190;2022-07-06T13:51:09;21.60;57.30
53695;DHT22;39588;51.124;7.190;2022-07-06T13:53:35;21.60;55.70
53695;DHT22;39588;51.124;7.190;2022-07-06T13:56:01;21.60;56.00
53695;DHT22;39588;51.124;7.190;2022-07-06T13:58:26;21.40;56.60
53695;DHT22;39588;51.124;7.190;2022-07-06T14:00:53;21.40;57.60
53695;DHT22;39588;51.124;7.190;2022-07-06T14:03:19;21.80;59.30
53695;DHT22;39588;51.124;7.190;2022-07-06T14:05:44;22.50;59.20
53695;DHT22;39588;51.124;7.190;2022-07-06T14:08:10;22.50;59.60
53695;DHT22;39588;51.124;7.190;2022-07-06T14:10:36;23.10;57.90
53695;DHT22;39588;51.124;7.190;2022-07-06T14:13:01;23.20;56.30
53695;DHT22;39588;51.124;7.190;2022-07-06T14:15:27;23.30;56.30
53695;DHT22;39588;51.124;7.190;2022-07-06T14:22:46;23.00;53.80
53695;DHT22;39588;51.124;7.190;2022-07-06T14:25:11;22.70;55.10
53695;DHT22;39588;51.124;7.190;2022-07-06T14:30:04;22.20;55.10
53695;DHT22;39588;51.124;7.190;2022-07-06T14:32:29;22.20;57.40
53695;DHT22;39588;51.124;7.190;2022-07-06T14:42:14;22.60;58.10
53695;DHT22;39588;51.124;7.190;2022-07-06T14:44:40;22.70;54.20
53695;DHT22;39588;51.124;7.190;2022-07-06T14:54:24;23.30;58.00
53695;DHT22;39588;51.124;7.190;2022-07-06T15:04:09;23.30;56.20
53695;DHT22;39588;51.124;7.190;2022-07-06T15:09:01;23.20;54.70
53695;DHT22;39588;51.124;7.190;2022-07-06T15:11:30;22.90;55.00
53695;DHT22;39588;51.124;7.190;2022-07-06T15:13:56;22.60;55.70
53695;DHT22;39588;51.124;7.190;2022-07-06T15:16:21;22.50;56.10
53695;DHT22;39588;51.124;7.190;2022-07-06T15:18:47;22.50;54.50
53695;DHT22;39588;51.124;7.190;2022-07-06T15:40:46;22.10;55.00
53695;DHT22;39588;51.124;7.190;2022-07-06T15:43:23;22.30;57.20
53695;DHT22;39588;51.124;7.190;2022-07-06T15:45:55;22.40;56.80
53695;DHT22;39588;51.124;7.190;2022-07-06T15:48:21;22.40;54.80
53695;DHT22;39588;51.124;7.190;2022-07-06T15:50:47;22.30;54.80
53695;DHT22;39588;51.124;7.190;2022-07-06T15:53:12;22.00;54.40
53695;DHT22;39588;51.124;7.190;2022-07-06T15:55:38;21.80;55.60
53695;DHT22;39588;51.124;7.190;2022-07-06T16:00:29;21.80;55.90
53695;DHT22;39588;51.124;7.190;2022-07-06T16:02:56;21.90;55.30
53695;DHT22;39588;51.124;7.190;2022-07-06T16:07:50;21.60;54.40
53695;DHT22;39588;51.124;7.190;2022-07-06T16:10:15;21.60;55.60
53695;DHT22;39588;51.124;7.190;2022-07-06T16:15:08;21.50;56.00
53695;DHT22;39588;51.124;7.190;2022-07-06T16:17:34;21.30;55.70
53695;DHT22;39588;51.124;7.190;2022-07-06T16:20:00;21.10;56.70
53695;DHT22;39588;51.124;7.190;2022-07-06T16:22:26;21.10;56.50
53695;DHT22;39588;51.124;7.190;2022-07-06T16:24:52;21.20;58.00
53695;DHT22;39588;51.124;7.190;2022-07-06T16:27:18;21.20;57.60
53695;DHT22;39588;51.124;7.190;2022-07-06T16:29:44;21.30;56.70
53695;DHT22;39588;51.124;7.190;2022-07-06T16:32:09;21.40;56.10
53695;DHT22;39588;51.124;7.190;2022-07-06T16:34:37;21.60;55.20
53695;DHT22;39588;51.124;7.190;2022-07-06T16:37:03;21.70;55.00
53695;DHT22;39588;51.124;7.190;2022-07-06T16:39:28;21.90;54.70
53695;DHT22;39588;51.124;7.190;2022-07-06T16:41:54;21.90;55.90
53695;DHT22;39588;51.124;7.190;2022-07-06T16:44:20;22.10;56.30
53695;DHT22;39588;51.124;7.190;2022-07-06T17:01:21;21.90;56.20
53695;DHT22;39588;51.124;7.190;2022-07-06T17:03:47;22.00;56.10
53695;DHT22;39588;51.124;7.190;2022-07-06T17:06:12;22.00;55.60
53695;DHT22;39588;51.124;7.190;2022-07-06T17:08:38;21.80;54.60
53695;DHT22;39588;51.124;7.190;2022-07-06T17:18:23;21.10;55.20
53695;DHT22;39588;51.124;7.190;2022-07-06T17:20:49;20.90;56.80
53695;DHT22;39588;51.124;7.190;2022-07-06T17:23:15;20.90;55.90
53695;DHT22;39588;51.124;7.190;2022-07-06T17:25:41;20.90;56.90